Time;durP1;ratioP1;P1;durP2;ratioP2;P2;SDS_P1;SDS_P2;PMS_P1;PMS_P2;Temp;Humidity;BMP_temperature;BMP_pressure;BME280_temperature;BME280_humidity;BME280_pressure;Samples;Min_cycle;Max_cycle;Signal;HPM_P1;HPM_P2
2022/12/05 00:01:42;;;;;;;77.70;33.45;;;2.60;99.90;;;;;;5092401;28;20074;-43
2022/12/05 00:04:12;;;;;;;81.72;35.35;;;2.60;99.90;;;;;;5092103;28;20032;-43
2022/12/05 00:06:39;;;;;;;75.90;34.75;;;2.60;99.90;;;;;;5091772;28;20081;-43
2022/12/05 00:09:06;;;;;;;76.10;32.88;;;2.60;99.90;;;;;;5090531;28;20104;-43
2022/12/05 00:11:35;;;;;;;75.50;33.08;;;2.60;99.90;;;;;;5091618;28;20024;-43
2022/12/05 00:14:02;;;;;;;80.68;33.03;;;2.60;99.90;;;;;;5091850;28;20396;-42
2022/12/05 00:16:29;;;;;;;87.82;34.75;;;2.60;99.90;;;;;;5095307;28;20059;-43
2022/12/05 00:18:57;;;;;;;77.95;34.40;;;2.60;99.90;;;;;;5088992;28;20488;-45
2022/12/05 00:21:25;;;;;;;82.25;34.63;;;2.60;99.90;;;;;;5091178;28;20027;-43
2022/12/05 00:23:53;;;;;;;74.88;33.33;;;2.60;99.90;;;;;;5091734;28;20238;-43
2022/12/05 00:26:19;;;;;;;79.57;34.53;;;2.50;99.90;;;;;;5091766;28;20035;-43
2022/12/05 00:28:45;;;;;;;85.05;33.30;;;2.60;99.90;;;;;;5091659;28;20016;-43
2022/12/05 00:31:15;;;;;;;81.60;34.95;;;2.50;99.90;;;;;;5091076;28;20024;-42
2022/12/05 00:33:40;;;;;;;78.63;35.15;;;2.60;99.90;;;;;;5091663;28;20018;-43
2022/12/05 00:36:13;;;;;;;75.93;31.85;;;2.60;99.90;;;;;;5086579;28;20028;-42
2022/12/05 00:38:38;;;;;;;80.35;34.65;;;2.60;99.90;;;;;;5091267;28;20115;-43
2022/12/05 00:41:06;;;;;;;75.25;33.58;;;2.60;99.90;;;;;;5089640;28;20111;-42
2022/12/05 00:43:31;;;;;;;86.75;35.85;;;2.60;99.90;;;;;;5091435;28;20236;-42
2022/12/05 00:46:05;;;;;;;77.97;33.63;;;2.50;99.90;;;;;;5090270;28;20036;-42
2022/12/05 00:48:34;;;;;;;76.95;33.25;;;2.50;99.90;;;;;;5087188;28;20435;-43
2022/12/05 00:51:19;;;;;;;85.32;34.53;;;2.50;99.90;;;;;;5090131;28;20016;-43
2022/12/05 00:53:46;;;;;;;73.38;32.58;;;2.50;99.90;;;;;;5091419;28;20062;-43
2022/12/05 00:56:15;;;;;;;78.28;32.72;;;2.50;99.90;;;;;;5090309;28;20369;-42
2022/12/05 00:58:42;;;;;;;80.88;33.55;;;2.50;99.90;;;;;;5091487;28;20032;-42
2022/12/05 01:01:17;;;;;;;83.80;34.00;;;2.50;99.90;;;;;;5091059;28;20021;-42
2022/12/05 01:03:44;;;;;;;74.10;34.03;;;2.50;99.90;;;;;;5091055;28;20446;-42
2022/12/05 01:06:11;;;;;;;73.75;32.38;;;2.50;99.90;;;;;;5075499;28;20024;-42
2022/12/05 01:08:37;;;;;;;69.57;32.63;;;2.50;99.90;;;;;;5101885;28;20063;-43
2022/12/05 01:11:04;;;;;;;78.10;35.13;;;2.50;99.90;;;;;;5110758;28;20059;-43
2022/12/05 01:13:31;;;;;;;71.65;31.48;;;2.50;99.90;;;;;;5111150;28;20408;-42
2022/12/05 01:15:56;;;;;;;75.72;32.88;;;2.50;99.90;;;;;;5111463;27;20047;-42
2022/12/05 01:18:23;;;;;;;71.50;30.42;;;2.50;99.90;;;;;;5102320;28;20067;-43
2022/12/05 01:20:49;;;;;;;76.25;32.85;;;2.50;99.90;;;;;;5089703;28;20499;-43
2022/12/05 01:23:15;;;;;;;75.25;32.00;;;2.50;99.90;;;;;;5090854;28;20103;-43
2022/12/05 01:25:43;;;;;;;73.70;31.63;;;2.50;99.90;;;;;;5089289;28;20621;-42
2022/12/05 01:28:09;;;;;;;75.03;32.42;;;2.50;99.90;;;;;;5090602;28;20025;-42
2022/12/05 01:30:41;;;;;;;66.43;30.30;;;2.50;99.90;;;;;;5090178;28;20028;-43
2022/12/05 01:33:07;;;;;;;76.47;33.85;;;2.50;99.90;;;;;;5090140;28;20503;-42
2022/12/05 01:35:34;;;;;;;60.42;29.10;;;2.50;99.90;;;;;;5083008;28;20032;-43
2022/12/05 01:38:00;;;;;;;72.40;30.10;;;2.50;99.90;;;;;;5087739;28;20028;-42
2022/12/05 01:40:25;;;;;;;66.40;30.23;;;2.50;99.90;;;;;;5089734;28;20035;-43
2022/12/05 01:42:51;;;;;;;70.20;30.73;;;2.50;99.90;;;;;;5090167;28;20110;-43
2022/12/05 01:45:38;;;;;;;68.03;30.10;;;2.50;99.90;;;;;;5084383;28;20031;-42
2022/12/05 01:48:13;;;;;;;61.65;29.25;;;2.50;99.90;;;;;;5084519;28;20027;-43
2022/12/05 01:50:39;;;;;;;69.10;30.55;;;2.50;99.90;;;;;;5088910;28;20020;-43
2022/12/05 01:53:04;;;;;;;69.28;31.33;;;2.50;99.90;;;;;;5090282;28;20031;-42
2022/12/05 01:55:31;;;;;;;71.05;31.10;;;2.50;99.90;;;;;;5089735;28;20503;-42
2022/12/05 01:57:56;;;;;;;68.47;30.13;;;2.50;99.90;;;;;;5089641;28;20043;-42
2022/12/05 02:00:22;;;;;;;66.70;29.85;;;2.60;99.90;;;;;;5089262;28;20393;-43
2022/12/05 02:03:10;;;;;;;65.72;29.10;;;2.60;99.90;;;;;;5089891;28;20158;-42
2022/12/05 02:05:36;;;;;;;66.65;29.10;;;2.50;99.90;;;;;;5089835;28;20024;-42
2022/12/05 02:08:05;;;;;;;73.10;30.35;;;2.50;99.90;;;;;;5089881;28;20020;-43
2022/12/05 02:10:37;;;;;;;59.60;30.25;;;2.50;99.90;;;;;;5089099;28;20373;-42
2022/12/05 02:13:22;;;;;;;67.10;28.13;;;2.50;99.90;;;;;;5089400;28;20428;-43
2022/12/05 02:16:24;;;;;;;63.78;28.80;;;2.50;99.90;;;;;;5093027;28;20028;-42
2022/12/05 02:19:16;;;;;;;66.38;29.50;;;2.50;99.90;;;;;;5090320;28;20028;-42
2022/12/05 02:22:02;;;;;;;68.55;29.70;;;2.50;99.90;;;;;;5048842;28;20105;-42
2022/12/05 02:25:27;;;;;;;61.38;28.50;;;2.60;99.90;;;;;;5068001;28;20025;-42
2022/12/05 02:28:24;;;;;;;61.65;29.15;;;2.50;99.90;;;;;;4977518;28;20092;-43
2022/12/05 02:31:06;;;;;;;69.10;30.20;;;2.50;99.90;;;;;;5005846;28;20037;-42
2022/12/05 02:33:56;;;;;;;63.90;28.15;;;2.50;99.90;;;;;;5080383;28;20189;-43
2022/12/05 02:36:40;;;;;;;69.05;28.92;;;2.50;99.90;;;;;;5080705;28;20016;-42
2022/12/05 02:39:17;;;;;;;69.65;28.17;;;2.50;99.90;;;;;;5088873;28;20078;-43
2022/12/05 02:41:55;;;;;;;69.63;26.52;;;2.50;99.90;;;;;;5087381;28;20418;-43
2022/12/05 02:44:29;;;;;;;69.40;29.33;;;2.50;99.90;;;;;;5088969;28;20431;-43
2022/12/05 02:46:58;;;;;;;61.47;26.85;;;2.50;99.90;;;;;;5087809;28;20496;-42
2022/12/05 02:49:30;;;;;;;64.85;28.17;;;2.50;99.90;;;;;;5082407;28;20389;-43
2022/12/05 02:51:58;;;;;;;58.55;27.25;;;2.50;99.90;;;;;;5089072;28;20035;-42
2022/12/05 02:54:32;;;;;;;65.00;28.30;;;2.50;99.90;;;;;;5087773;28;20045;-43
2022/12/05 02:56:59;;;;;;;70.78;28.23;;;2.50;99.90;;;;;;5089193;28;20024;-42
2022/12/05 02:59:25;;;;;;;68.82;29.27;;;2.50;99.90;;;;;;5088746;28;20073;-42
2022/12/05 03:01:51;;;;;;;65.68;29.27;;;2.50;99.90;;;;;;5088564;28;20024;-42
2022/12/05 03:04:19;;;;;;;68.38;29.77;;;2.50;99.90;;;;;;5089147;28;20060;-42
2022/12/05 03:06:50;;;;;;;65.72;29.27;;;2.50;99.90;;;;;;5088934;28;20042;-42
2022/12/05 03:09:22;;;;;;;73.63;30.65;;;2.50;99.90;;;;;;5088033;28;20055;-42
2022/12/05 03:12:09;;;;;;;66.10;28.65;;;2.50;99.90;;;;;;5087875;28;20496;-42
2022/12/05 03:14:44;;;;;;;65.88;27.52;;;2.50;99.90;;;;;;5087811;28;20024;-42
2022/12/05 03:17:17;;;;;;;63.88;27.52;;;2.50;99.90;;;;;;5088844;28;20469;-42
2022/12/05 03:19:59;;;;;;;69.95;29.88;;;2.60;99.90;;;;;;5080381;28;20107;-42
2022/12/05 03:22:32;;;;;;;76.40;28.50;;;2.50;99.90;;;;;;5100937;28;20052;-42
2022/12/05 03:24:59;;;;;;;73.07;29.50;;;2.50;99.90;;;;;;5109028;28;20082;-42
2022/12/05 03:27:33;;;;;;;71.75;30.50;;;2.50;99.90;;;;;;5106289;28;20282;-42
2022/12/05 03:30:11;;;;;;;75.53;29.60;;;2.60;99.90;;;;;;5107404;28;20107;-43
2022/12/05 03:32:39;;;;;;;72.65;29.40;;;2.60;99.90;;;;;;5107301;28;20114;-42
2022/12/05 03:35:26;;;;;;;71.85;29.08;;;2.60;99.90;;;;;;5105893;28;20012;-42
2022/12/05 03:38:07;;;;;;;67.07;29.77;;;2.60;99.90;;;;;;5085262;28;20440;-43
2022/12/05 03:40:44;;;;;;;68.88;28.48;;;2.60;99.90;;;;;;5088082;28;20471;-42
2022/12/05 03:43:17;;;;;;;71.82;28.70;;;2.60;99.90;;;;;;5088726;28;20024;-42
2022/12/05 03:45:51;;;;;;;72.07;29.70;;;2.60;99.90;;;;;;5087251;28;20073;-41
2022/12/05 03:48:36;;;;;;;81.45;32.17;;;2.60;99.90;;;;;;5084717;28;20020;-42
2022/12/05 03:51:05;;;;;;;79.85;30.27;;;2.60;99.90;;;;;;5087708;28;20118;-42
2022/12/05 03:53:41;;;;;;;74.60;32.33;;;2.60;99.90;;;;;;5088604;28;20487;-43
2022/12/05 03:56:23;;;;;;;82.47;31.50;;;2.60;99.90;;;;;;5088418;28;20016;-42
2022/12/05 03:59:06;;;;;;;77.93;30.52;;;2.60;99.90;;;;;;5088557;28;20028;-43
2022/12/05 04:01:33;;;;;;;79.88;32.20;;;2.60;99.90;;;;;;5088355;28;20074;-43
2022/12/05 04:04:09;;;;;;;78.70;33.53;;;2.60;99.90;;;;;;5088378;28;20086;-42
2022/12/05 04:06:38;;;;;;;79.38;31.85;;;2.60;99.90;;;;;;5087639;28;20118;-43
2022/12/05 04:09:10;;;;;;;82.50;32.75;;;2.60;99.90;;;;;;5100350;28;20471;-42
2022/12/05 04:11:40;;;;;;;77.80;32.85;;;2.60;99.90;;;;;;5108749;28;20464;-41
2022/12/05 04:14:34;;;;;;;77.40;30.52;;;2.60;99.90;;;;;;5108555;28;20283;-41
2022/12/05 04:17:08;;;;;;;79.43;30.02;;;2.60;99.90;;;;;;5108722;28;20027;-42
2022/12/05 04:22:34;;;;;;;73.93;29.48;;;2.50;99.90;;;;;;5071361;28;20067;-42
2022/12/05 04:28:23;;;;;;;70.05;29.20;;;2.50;99.90;;;;;;5071909;28;20069;-42
2022/12/05 04:30:54;;;;;;;74.03;28.98;;;2.50;99.90;;;;;;5071003;28;20515;-43
2022/12/05 04:33:38;;;;;;;74.82;31.05;;;2.50;99.90;;;;;;5071464;28;20035;-42
2022/12/05 04:36:15;;;;;;;79.72;29.60;;;2.50;99.90;;;;;;5077575;28;20024;-42
2022/12/05 04:39:15;;;;;;;65.03;26.80;;;2.50;99.90;;;;;;5091413;28;20081;-41
2022/12/05 04:41:48;;;;;;;66.60;26.92;;;2.50;99.90;;;;;;5080356;28;20044;-42
2022/12/05 04:44:24;;;;;;;68.45;27.63;;;2.40;99.90;;;;;;5091495;28;20517;-42
2022/12/05 04:46:55;;;;;;;60.28;25.98;;;2.40;99.90;;;;;;5091130;28;20458;-42
2022/12/05 04:49:23;;;;;;;;;;;2.40;99.90;;;;;;5087429;28;20020;-42
2022/12/05 04:51:53;;;;;;;62.85;26.85;;;2.40;99.90;;;;;;5090865;28;19942;-43
2022/12/05 04:54:27;;;;;;;62.67;25.27;;;2.40;99.90;;;;;;5089457;28;20090;-42
2022/12/05 04:57:08;;;;;;;59.00;24.38;;;2.40;99.90;;;;;;5091326;28;20043;-42
2022/12/05 04:59:37;;;;;;;61.83;26.33;;;2.50;99.90;;;;;;5090847;28;20106;-42
2022/12/05 05:02:07;;;;;;;56.83;25.70;;;2.40;99.90;;;;;;5091312;28;20034;-41
2022/12/05 05:04:42;;;;;;;56.30;25.50;;;2.40;99.90;;;;;;5083955;28;20032;-42
2022/12/05 05:07:12;;;;;;;62.83;26.25;;;2.50;99.90;;;;;;5085894;28;20024;-42
2022/12/05 05:09:38;;;;;;;56.72;24.90;;;2.40;99.90;;;;;;5084091;28;20048;-42
2022/12/05 05:12:04;;;;;;;53.80;24.17;;;2.50;99.90;;;;;;5078266;28;20376;-42
2022/12/05 05:14:30;;;;;;;55.67;25.55;;;2.50;99.90;;;;;;5079947;28;20008;-41
2022/12/05 05:16:57;;;;;;;61.28;25.05;;;2.50;99.90;;;;;;5078798;28;20024;-40
2022/12/05 05:19:23;;;;;;;57.88;24.75;;;2.50;99.90;;;;;;5079273;28;20020;-40
2022/12/05 05:21:51;;;;;;;57.65;23.73;;;2.50;99.90;;;;;;5083057;28;20369;-40
2022/12/05 05:24:18;;;;;;;59.40;25.08;;;2.50;99.90;;;;;;5079082;28;20228;-42
2022/12/05 05:26:45;;;;;;;53.88;23.45;;;2.50;99.90;;;;;;5079309;28;20473;-40
2022/12/05 05:29:11;;;;;;;59.30;26.05;;;2.40;99.90;;;;;;5080443;28;20027;-40
2022/12/05 05:31:38;;;;;;;56.42;23.90;;;2.40;99.90;;;;;;5079545;28;20021;-40
2022/12/05 05:34:04;;;;;;;56.63;24.75;;;2.40;99.90;;;;;;5077383;28;20055;-40
2022/12/05 05:36:30;;;;;;;54.00;23.42;;;2.40;99.90;;;;;;5080072;28;20021;-40
2022/12/05 05:38:58;;;;;;;55.22;23.10;;;2.30;99.90;;;;;;5078607;28;20059;-40
2022/12/05 05:41:27;;;;;;;49.38;22.02;;;2.30;99.90;;;;;;5069590;28;20035;-40
2022/12/05 05:43:53;;;;;;;49.20;22.73;;;2.30;99.90;;;;;;5069967;28;20107;-40
2022/12/05 05:46:22;;;;;;;42.25;21.20;;;2.30;99.90;;;;;;5072783;28;20037;-41
2022/12/05 05:48:48;;;;;;;55.60;23.00;;;2.30;99.90;;;;;;5089988;28;20024;-39
2022/12/05 05:51:14;;;;;;;46.97;20.80;;;2.20;99.90;;;;;;5087477;28;20020;-40
2022/12/05 05:53:41;;;;;;;45.28;21.27;;;2.20;99.90;;;;;;5079659;28;20025;-40
2022/12/05 05:56:09;;;;;;;47.63;21.55;;;2.20;99.90;;;;;;5078533;28;20024;-40
2022/12/05 05:58:35;;;;;;;48.67;21.30;;;2.20;99.90;;;;;;5078880;28;20150;-40
2022/12/05 06:01:07;;;;;;;39.17;19.35;;;2.10;99.90;;;;;;5089417;28;20032;-40
2022/12/05 06:03:33;;;;;;;51.92;22.70;;;2.10;99.90;;;;;;5089631;28;20115;-40
2022/12/05 06:06:02;;;;;;;46.25;20.38;;;2.10;99.90;;;;;;5088285;28;20546;-41
2022/12/05 06:08:29;;;;;;;40.53;19.10;;;2.10;99.90;;;;;;5090260;28;20077;-40
2022/12/05 06:10:55;;;;;;;49.05;20.83;;;2.10;99.90;;;;;;5089154;28;20020;-40
2022/12/05 06:13:21;;;;;;;51.55;20.90;;;2.00;99.90;;;;;;5090003;28;20089;-41
2022/12/05 06:15:47;;;;;;;43.17;21.55;;;2.00;99.90;;;;;;5089794;28;20402;-40
2022/12/05 06:18:17;;;;;;;40.70;19.27;;;2.00;99.90;;;;;;5087162;28;20024;-40
2022/12/05 06:20:57;;;;;;;41.72;19.13;;;1.90;99.90;;;;;;5087685;28;20024;-40
2022/12/05 06:23:24;;;;;;;36.60;17.23;;;1.90;99.90;;;;;;5088111;28;20062;-40
2022/12/05 06:25:52;;;;;;;33.45;17.27;;;1.80;99.90;;;;;;5087803;28;20127;-40
2022/12/05 06:28:19;;;;;;;37.20;18.67;;;1.80;99.90;;;;;;5089477;28;20027;-40
2022/12/05 06:30:46;;;;;;;37.03;19.40;;;1.90;99.90;;;;;;5088662;28;20038;-40
2022/12/05 06:33:12;;;;;;;41.38;20.70;;;1.90;99.90;;;;;;5089167;28;20028;-40
2022/12/05 06:35:38;;;;;;;39.75;19.55;;;1.90;99.90;;;;;;5088035;28;20031;-40
2022/12/05 06:38:06;;;;;;;40.45;19.38;;;1.80;99.90;;;;;;5089303;28;20380;-40
2022/12/05 06:40:31;;;;;;;35.95;17.40;;;1.80;99.90;;;;;;5087458;28;20045;-40
2022/12/05 06:42:57;;;;;;;48.72;19.33;;;1.80;99.90;;;;;;5088811;28;20028;-40
2022/12/05 06:45:23;;;;;;;34.30;17.48;;;1.70;99.90;;;;;;5087668;28;20020;-40
2022/12/05 06:47:50;;;;;;;42.10;18.90;;;1.70;99.90;;;;;;5089155;28;20032;-40
2022/12/05 06:50:16;;;;;;;37.25;17.95;;;1.70;99.90;;;;;;5080470;28;20586;-41
2022/12/05 06:52:42;;;;;;;35.88;18.40;;;1.70;99.90;;;;;;5089165;28;20126;-40
2022/12/05 06:55:08;;;;;;;34.67;17.67;;;1.70;99.90;;;;;;5088256;28;20058;-40
2022/12/05 06:57:34;;;;;;;37.80;17.05;;;1.70;99.90;;;;;;5087577;28;20027;-40
2022/12/05 07:02:45;;;;;;;35.72;17.67;;;1.70;99.90;;;;;;5088029;28;20034;-40
2022/12/05 07:05:11;;;;;;;31.95;16.23;;;1.70;99.90;;;;;;5087593;28;20301;-40
2022/12/05 07:07:37;;;;;;;35.60;16.92;;;1.70;99.90;;;;;;5086150;28;20024;-40
2022/12/05 07:10:04;;;;;;;34.00;16.80;;;1.70;99.90;;;;;;5085951;28;20028;-40
2022/12/05 07:12:32;;;;;;;34.25;16.65;;;1.70;99.90;;;;;;5088997;28;20039;-41
2022/12/05 07:14:57;;;;;;;29.77;15.45;;;1.60;99.90;;;;;;5087350;28;20477;-40
2022/12/05 07:17:23;;;;;;;29.75;16.40;;;1.60;99.90;;;;;;5088765;28;20031;-40
2022/12/05 07:19:50;;;;;;;30.60;16.00;;;1.60;99.90;;;;;;5084698;28;20039;-40
2022/12/05 07:22:20;;;;;;;28.05;15.23;;;1.60;99.90;;;;;;5068394;28;20039;-41
2022/12/05 07:24:46;;;;;;;27.80;14.50;;;1.60;99.90;;;;;;5068872;28;20108;-41
2022/12/05 07:27:13;;;;;;;29.38;15.50;;;1.60;99.90;;;;;;5068593;28;20560;-40
2022/12/05 07:29:39;;;;;;;29.55;15.15;;;1.60;99.90;;;;;;5066916;28;20033;-40
2022/12/05 07:32:05;;;;;;;35.72;14.85;;;1.60;99.90;;;;;;5067393;28;20021;-40
2022/12/05 07:34:31;;;;;;;25.50;13.73;;;1.60;99.90;;;;;;5068729;28;20040;-40
2022/12/05 07:36:59;;;;;;;24.55;14.52;;;1.50;99.90;;;;;;5068366;28;20024;-41
2022/12/05 07:39:25;;;;;;;26.20;13.98;;;1.50;99.90;;;;;;5068080;28;20068;-41
2022/12/05 07:41:53;;;;;;;22.20;13.38;;;1.50;99.90;;;;;;5068769;28;20036;-40
2022/12/05 07:44:22;;;;;;;21.50;12.65;;;1.50;99.90;;;;;;5068617;28;20040;-40
2022/12/05 07:46:48;;;;;;;23.17;12.27;;;1.60;99.90;;;;;;5068343;28;20028;-40
2022/12/05 07:49:17;;;;;;;24.88;13.32;;;1.60;99.90;;;;;;5083221;28;20533;-43
2022/12/05 07:51:45;;;;;;;23.92;13.35;;;1.60;99.90;;;;;;5086290;28;20036;-41
2022/12/05 07:54:11;;;;;;;24.38;12.38;;;1.60;99.90;;;;;;5087652;28;20104;-41
2022/12/05 07:56:36;;;;;;;23.85;12.23;;;1.60;99.90;;;;;;5086335;28;20107;-41
2022/12/05 07:59:02;;;;;;;20.40;12.05;;;1.60;99.90;;;;;;5078835;28;20340;-41
2022/12/05 08:01:29;;;;;;;22.05;11.23;;;1.60;99.90;;;;;;5079901;28;20065;-40
2022/12/05 08:03:57;;;;;;;21.95;11.30;;;1.60;99.90;;;;;;5081402;28;20029;-40
2022/12/05 08:06:28;;;;;;;23.58;12.15;;;1.60;99.90;;;;;;5093417;28;20062;-40
2022/12/05 08:08:55;;;;;;;19.63;11.50;;;1.60;99.90;;;;;;5093646;28;20028;-40
2022/12/05 08:11:29;;;;;;;22.55;12.00;;;1.70;99.90;;;;;;5091959;28;20606;-40
2022/12/05 08:13:56;;;;;;;20.38;11.38;;;1.60;99.90;;;;;;5093710;28;20104;-41
2022/12/05 08:16:26;;;;;;;20.77;11.48;;;1.70;99.90;;;;;;5093457;28;20035;-41
2022/12/05 08:18:56;;;;;;;;;;;1.70;99.90;;;;;;5093862;28;20135;-41
2022/12/05 08:21:24;;;;;;;20.63;10.43;;;1.70;99.90;;;;;;5092607;28;19935;-40
2022/12/05 08:23:50;;;;;;;18.20;11.45;;;1.70;99.90;;;;;;5093372;28;20016;-41
2022/12/05 08:26:23;;;;;;;19.27;11.23;;;1.80;99.90;;;;;;5093084;28;20032;-41
2022/12/05 08:29:10;;;;;;;17.67;10.07;;;1.80;99.90;;;;;;5091206;28;20023;-41
2022/12/05 08:31:45;;;;;;;18.77;10.02;;;1.70;99.90;;;;;;5091541;28;20055;-40
2022/12/05 08:34:12;;;;;;;16.55;9.23;;;1.80;99.90;;;;;;5090289;28;20035;-41
2022/12/05 08:36:38;;;;;;;18.05;9.85;;;1.80;99.90;;;;;;5091702;28;20028;-41
2022/12/05 08:39:06;;;;;;;16.95;9.98;;;1.80;99.90;;;;;;5091682;28;20051;-42
2022/12/05 08:41:32;;;;;;;14.52;9.43;;;1.80;99.90;;;;;;5091198;28;20085;-41
2022/12/05 08:44:01;;;;;;;20.08;10.32;;;1.80;99.90;;;;;;5090004;28;20028;-42
2022/12/05 08:46:31;;;;;;;14.35;8.77;;;1.80;99.90;;;;;;5091440;28;20036;-41
2022/12/05 08:48:57;;;;;;;14.77;8.85;;;1.80;99.90;;;;;;5091675;28;20050;-41
2022/12/05 08:51:22;;;;;;;15.90;10.25;;;1.80;99.90;;;;;;5089799;28;20068;-42
2022/12/05 08:53:48;;;;;;;17.23;10.15;;;1.90;99.90;;;;;;5091197;28;20023;-41
2022/12/05 08:56:14;;;;;;;16.15;9.00;;;1.90;99.90;;;;;;5091354;28;20024;-41
2022/12/05 08:58:41;;;;;;;13.40;8.32;;;1.90;99.90;;;;;;5090034;28;20360;-41
2022/12/05 09:01:09;;;;;;;21.35;11.05;;;1.90;99.90;;;;;;5090577;28;20074;-41
2022/12/05 09:03:35;;;;;;;15.48;8.90;;;1.90;99.90;;;;;;5089886;28;20117;-43
2022/12/05 09:06:16;;;;;;;16.67;9.95;;;1.90;99.90;;;;;;5090763;28;20059;-41
2022/12/05 09:08:42;;;;;;;15.32;8.48;;;1.90;99.90;;;;;;5091362;28;20373;-41
2022/12/05 09:11:13;;;;;;;15.63;9.52;;;1.90;99.90;;;;;;5089568;28;20157;-41
2022/12/05 09:13:39;;;;;;;14.10;9.18;;;2.00;99.90;;;;;;5089969;28;20020;-42
2022/12/05 09:16:11;;;;;;;15.85;10.23;;;1.90;99.90;;;;;;5090877;28;20020;-41
2022/12/05 09:18:37;;;;;;;16.90;10.43;;;1.90;99.90;;;;;;5090657;28;20433;-41
2022/12/05 09:21:11;;;;;;;15.32;8.75;;;1.90;99.90;;;;;;5089962;28;20024;-42
2022/12/05 09:23:37;;;;;;;14.75;8.23;;;1.90;99.90;;;;;;5089207;28;20024;-43
2022/12/05 09:26:05;;;;;;;14.63;9.82;;;1.90;99.90;;;;;;5089293;28;20362;-41
2022/12/05 09:28:31;;;;;;;13.30;8.93;;;1.90;99.90;;;;;;5089650;28;20476;-42
2022/12/05 09:31:09;;;;;;;13.65;8.40;;;1.90;99.90;;;;;;5090155;28;20031;-42
2022/12/05 09:33:36;;;;;;;13.73;8.32;;;2.00;99.90;;;;;;5089253;28;20369;-41
2022/12/05 09:36:04;;;;;;;18.75;8.85;;;1.90;99.90;;;;;;5072527;28;20035;-41
2022/12/05 09:38:30;;;;;;;13.70;8.73;;;1.90;99.90;;;;;;5090194;28;20034;-41
2022/12/05 09:41:08;;;;;;;13.35;8.75;;;2.00;99.90;;;;;;5089745;28;20020;-41
2022/12/05 09:44:02;;;;;;;14.70;9.52;;;2.00;99.90;;;;;;5088958;28;20043;-41
2022/12/05 09:46:55;;;;;;;14.60;9.20;;;2.00;99.90;;;;;;5082551;28;20427;-42
2022/12/05 09:49:23;;;;;;;17.10;9.00;;;2.00;99.90;;;;;;5088257;28;20024;-44
2022/12/05 09:51:51;;;;;;;17.08;9.63;;;2.10;99.90;;;;;;5090042;28;20016;-41
2022/12/05 09:54:17;;;;;;;15.60;9.30;;;2.10;99.90;;;;;;5088874;28;20580;-41
2022/12/05 09:56:43;;;;;;;16.38;10.63;;;2.10;99.90;;;;;;5090052;28;20020;-41
2022/12/05 09:59:15;;;;;;;15.13;9.77;;;2.10;99.90;;;;;;5089501;28;20035;-40
2022/12/05 10:02:01;;;;;;;15.63;9.48;;;2.10;99.90;;;;;;5088664;28;20120;-41
2022/12/05 10:05:00;;;;;;;13.77;8.75;;;2.10;99.90;;;;;;5090051;28;20219;-42
2022/12/05 10:07:32;;;;;;;15.18;9.02;;;2.20;99.90;;;;;;5088233;28;20035;-41
2022/12/05 10:10:00;;;;;;;14.55;9.23;;;2.20;99.90;;;;;;5089693;28;20016;-41
2022/12/05 10:12:29;;;;;;;14.65;9.20;;;2.20;99.90;;;;;;5089818;28;20046;-42
2022/12/05 10:15:11;;;;;;;15.02;9.52;;;2.20;99.90;;;;;;5089748;28;20033;-40
2022/12/05 10:17:40;;;;;;;14.98;8.98;;;2.20;99.90;;;;;;5087867;28;20024;-44
2022/12/05 10:20:15;;;;;;;15.85;9.30;;;2.20;99.90;;;;;;5086642;28;20024;-40
2022/12/05 10:23:07;;;;;;;15.80;9.57;;;2.30;99.90;;;;;;5089671;28;20301;-42
2022/12/05 10:25:35;;;;;;;15.38;9.73;;;2.30;99.90;;;;;;5088900;28;20031;-42
2022/12/05 10:28:08;;;;;;;14.95;9.40;;;2.30;99.90;;;;;;5089850;28;20017;-41
2022/12/05 10:30:35;;;;;;;15.38;9.35;;;2.30;99.90;;;;;;5089140;28;20524;-42
2022/12/05 10:33:22;;;;;;;14.27;9.50;;;2.30;99.90;;;;;;5089675;28;20034;-41
2022/12/05 10:35:52;;;;;;;17.05;10.07;;;2.30;99.90;;;;;;5089399;28;20111;-42
2022/12/05 10:38:27;;;;;;;12.10;8.32;;;2.30;99.90;;;;;;5089261;28;20024;-41
2022/12/05 10:40:57;;;;;;;15.48;10.45;;;2.30;99.90;;;;;;5089070;28;20047;-41
2022/12/05 10:43:29;;;;;;;20.77;10.98;;;2.20;99.90;;;;;;5089085;28;20066;-43
2022/12/05 10:45:56;;;;;;;15.73;10.25;;;2.30;99.90;;;;;;5089885;28;20032;-41
2022/12/05 10:48:23;;;;;;;18.25;10.38;;;2.30;99.90;;;;;;5092279;28;20039;-41
2022/12/05 10:50:55;;;;;;;16.13;10.35;;;2.30;99.90;;;;;;5098277;28;20019;-40
2022/12/05 10:53:42;;;;;;;16.85;10.80;;;2.20;99.90;;;;;;5096422;28;20020;-40
2022/12/05 10:56:43;;;;;;;14.88;9.93;;;2.30;99.90;;;;;;5098802;28;20023;-41
2022/12/05 10:59:23;;;;;;;18.05;9.55;;;2.20;99.90;;;;;;5099213;28;20056;-41
2022/12/05 11:01:54;;;;;;;16.00;10.02;;;2.30;99.90;;;;;;5100072;28;20032;-43
2022/12/05 11:04:20;;;;;;;15.45;9.75;;;2.30;99.90;;;;;;5090646;28;20032;-42
2022/12/05 11:06:56;;;;;;;17.10;10.05;;;2.30;99.90;;;;;;5098501;28;20099;-41
2022/12/05 11:09:26;;;;;;;14.15;9.70;;;2.30;99.90;;;;;;5095019;28;20016;-41
2022/12/05 11:12:20;;;;;;;16.50;10.63;;;2.30;99.90;;;;;;5097488;28;20011;-42
2022/12/05 11:15:20;;;;;;;18.25;10.23;;;2.40;99.90;;;;;;5089607;28;20118;-42
2022/12/05 11:17:47;;;;;;;17.95;9.55;;;2.40;99.90;;;;;;5086912;28;20074;-41
2022/12/05 11:20:19;;;;;;;16.27;10.13;;;2.40;99.90;;;;;;5098991;28;20024;-41
2022/12/05 11:22:50;;;;;;;17.48;11.00;;;2.40;99.90;;;;;;5091664;28;20024;-41
2022/12/05 11:25:45;;;;;;;12.93;8.73;;;2.40;99.90;;;;;;5086328;28;20043;-41
2022/12/05 11:28:16;;;;;;;15.00;9.32;;;2.40;99.90;;;;;;5069273;28;20469;-41
2022/12/05 11:31:15;;;;;;;14.93;9.95;;;2.40;99.90;;;;;;5094096;28;20075;-41
2022/12/05 11:33:40;;;;;;;16.23;9.73;;;2.40;99.90;;;;;;5105802;28;20028;-41
2022/12/05 11:36:19;;;;;;;18.77;10.38;;;2.40;99.90;;;;;;5100499;28;20410;-41
2022/12/05 11:38:45;;;;;;;18.02;9.75;;;2.40;99.90;;;;;;5099997;28;20066;-40
2022/12/05 11:41:30;;;;;;;18.35;10.23;;;2.50;99.90;;;;;;5103571;28;20049;-42
2022/12/05 11:44:14;;;;;;;18.33;10.80;;;2.40;99.90;;;;;;5096172;28;20595;-42
2022/12/05 11:47:07;;;;;;;18.25;10.88;;;2.50;99.90;;;;;;5101471;28;20498;-41
2022/12/05 11:50:08;;;;;;;26.80;12.57;;;2.50;99.90;;;;;;5095925;28;20024;-43
2022/12/05 11:53:02;;;;;;;22.90;12.30;;;2.50;99.90;;;;;;5097333;28;20078;-42
2022/12/05 11:56:16;;;;;;;18.48;11.30;;;2.50;99.90;;;;;;5101181;28;20088;-41
2022/12/05 11:59:01;;;;;;;15.93;10.35;;;2.50;99.90;;;;;;5094298;28;20031;-40
2022/12/05 12:01:45;;;;;;;21.08;11.30;;;2.50;99.90;;;;;;5095484;28;20069;-41
2022/12/05 12:04:27;;;;;;;17.60;10.75;;;2.50;99.90;;;;;;5100257;28;20103;-43
2022/12/05 12:07:28;;;;;;;16.55;10.52;;;2.50;99.90;;;;;;5095948;28;20548;-41
2022/12/05 12:10:11;;;;;;;21.08;12.43;;;2.50;99.90;;;;;;5100073;28;20023;-41
2022/12/05 12:13:17;;;;;;;19.70;11.23;;;2.50;99.90;;;;;;5096041;28;20024;-42
2022/12/05 12:16:09;;;;;;;18.10;10.93;;;2.50;99.90;;;;;;5098051;28;20065;-42
2022/12/05 12:18:47;;;;;;;15.45;9.50;;;2.60;99.90;;;;;;5093686;28;20428;-41
2022/12/05 12:21:33;;;;;;;15.77;10.55;;;2.60;99.90;;;;;;5088494;28;20115;-43
2022/12/05 12:24:44;;;;;;;15.63;9.55;;;2.60;99.90;;;;;;5084591;28;20496;-42
2022/12/05 12:27:26;;;;;;;15.55;10.00;;;2.50;99.90;;;;;;5084428;28;20036;-42
2022/12/05 12:30:04;;;;;;;14.60;9.90;;;2.60;99.90;;;;;;5066879;28;20584;-41
2022/12/05 12:32:57;;;;;;;19.95;10.55;;;2.60;99.90;;;;;;5088587;28;20086;-41
2022/12/05 12:35:50;;;;;;;18.75;10.98;;;2.60;99.90;;;;;;5091645;28;20049;-42
2022/12/05 12:38:30;;;;;;;19.70;10.85;;;2.60;99.90;;;;;;5087169;28;20032;-41
2022/12/05 12:41:05;;;;;;;17.52;10.40;;;2.60;99.90;;;;;;5090672;28;20008;-42
2022/12/05 12:43:52;;;;;;;16.05;9.65;;;2.70;99.90;;;;;;5089492;28;20097;-41
2022/12/05 12:46:44;;;;;;;15.25;8.98;;;2.70;99.90;;;;;;5087190;28;20024;-42
2022/12/05 12:49:29;;;;;;;17.25;10.07;;;2.70;99.90;;;;;;5088492;28;20016;-41
2022/12/05 12:52:20;;;;;;;19.00;9.15;;;2.70;99.90;;;;;;5083714;28;20024;-42
2022/12/05 12:54:54;;;;;;;23.58;10.40;;;2.80;99.90;;;;;;5092421;28;20035;-41
2022/12/05 12:57:39;;;;;;;14.48;9.15;;;2.70;99.90;;;;;;5090648;28;20022;-42
2022/12/05 13:00:22;;;;;;;12.68;8.32;;;2.80;99.90;;;;;;5087731;28;20065;-44
2022/12/05 13:02:59;;;;;;;15.85;8.80;;;2.80;99.90;;;;;;5085764;28;20024;-40
2022/12/05 13:05:45;;;;;;;14.40;8.60;;;2.80;99.90;;;;;;5090276;28;20030;-40
2022/12/05 13:08:37;;;;;;;15.48;8.77;;;2.80;99.90;;;;;;5089123;28;20020;-42
2022/12/05 13:11:07;;;;;;;12.48;8.02;;;2.80;99.90;;;;;;5091675;28;20722;-42
2022/12/05 13:13:58;;;;;;;11.88;8.27;;;2.80;99.90;;;;;;5088783;28;20038;-41
2022/12/05 13:16:37;;;;;;;11.88;8.05;;;2.80;99.90;;;;;;5087518;28;20130;-42
2022/12/05 13:19:05;;;;;;;17.63;9.43;;;2.80;99.90;;;;;;5082777;28;20626;-41
2022/12/05 13:21:31;;;;;;;16.65;8.85;;;2.80;99.90;;;;;;5086013;28;20024;-41